Kuna, ID (83634)

4:20 PM MDT on August 03, 2015 (GMT -0600)
Hubbard & Locust Grove | | Change Station
CLOSE
Current Station
Personal Weather Station
Location: Kuna, ID
Elevation: 2690 ft
Nearby Weather Stations
Active Advisory: Fire Weather Warning Active Notice: Record Report

Elev 2690 ft 43.52 °N, 116.38 °W | Updated 10 minutes ago

Partly Cloudy
Partly Cloudy
93.2 °F
Feels Like 90 °F
N
3.7
Wind Variable Wind from NNE

Today
High -- | Low -- °F
--% Chance of Precip.
Yesterday
High -- | Low -- °F
Precip. -- in
6:37 AM 9:05 PM
Waning Gibbous, 83% visible
Pressure 29.87 in
Visibility 10.0 miles
Clouds Clear
Heat Index 90 °F
Dew Point 47 °F
Humidity 21%
Rainfall 0.00 in
Snow Depth Not available.
UV 9 out of 12
Pollen 5.60 out of 12
Air Quality Not available.
Flu Activity Not available.
METAR KMAN 032155Z AUTO 08003KT 10SM CLR 33/06 A2987 RMK AO1

More Conditions Fewer Conditions

Pressure 29.87 in
Visibility 10.0 miles
Clouds Clear
Heat Index 90 °F
Dew Point 47 °F
Humidity 21%
Rainfall 0.00 in
Snow Depth Not available.
UV 9 out of 12
Pollen 5.60 out of 12
Air Quality Not available.
Flu Activity Not available.
METAR KMAN 032155Z AUTO 08003KT 10SM CLR 33/06 A2987 RMK AO1

More Conditions Fewer Conditions

10-Day Weather Forecast

×

Almanac

Astronomy

Aug. 03, 2015 Rise Set
Actual Time
Civil Twilight
Nautical Twilight
Astronomical Twilight
Moon
Length of Visible Light
Length of Day
Tomorrow will be .
, % of the Moon is Illuminated

Today's Extremes

State Highs State Lows

Community

WunderPhotos

Upload Photos

1,843,785 photos uploaded!

WunderBlogs® & News

Nearby

Air Quality

  Air Quality AQ Index Pollutant
Not available.

Snow Depth

Station Depth Elevation

Earthquake Activity

City Distance Mag. Time & Date
Minimum magnitude displayed is 2.5.

Coastal Water Temperatures

Place Temperature

Stations

Nearby Weather Stations

Station Location Temp. Windchill Dew Point Humidity Wind Precip. Elev Updated Type
                   
Fire Weather Warning
Statement as of 9:11 AM PDT on August 03, 2015

... Red flag warning for lightning remains in effect until 9 PM
MDT /8 PM PDT/ for the Owyhee Mountains... southern Highlands...
Burns blm... and Vale blm... fire weather zones 636 637 423 426...

* thunderstorms... becoming scattered in coverage this afternoon.

* Outflow winds... gusts up to 40 mph are possible with these
storms.

Precautionary/preparedness actions...

A red flag warning means that critical fire weather conditions
are either occurring now... or will shortly.